createdAt,value
2023-12-02T00:04:55.213Z,100.00
2023-12-02T00:08:24.786Z,100.00
2023-12-02T00:12:09.558Z,100.00
2023-12-02T00:15:52.875Z,100.00
2023-12-02T00:19:15.154Z,100.00
2023-12-02T00:22:48.271Z,100.00
2023-12-02T00:26:22.590Z,100.00
2023-12-02T00:29:54.074Z,100.00
2023-12-02T00:33:26.650Z,100.00
2023-12-02T00:40:34.670Z,100.00
2023-12-02T00:44:24.715Z,100.00
2023-12-02T00:47:29.581Z,100.00
2023-12-02T00:51:11.149Z,100.00
2023-12-02T00:54:55.082Z,100.00
2023-12-02T00:58:35.464Z,100.00
2023-12-02T01:01:58.886Z,100.00
2023-12-02T01:05:42.124Z,100.00
2023-12-02T01:09:29.295Z,100.00
2023-12-02T01:13:01.698Z,100.00
2023-12-02T01:16:32.989Z,100.00
2023-12-02T01:20:18.199Z,100.00
2023-12-02T01:23:41.424Z,100.00
2023-12-02T01:27:25.715Z,100.00
2023-12-02T01:31:02.839Z,100.00
2023-12-02T01:34:34.461Z,100.00
2023-12-02T01:38:19.498Z,100.00
2023-12-02T01:41:54.991Z,100.00
2023-12-02T01:45:29.452Z,100.00
2023-12-02T01:49:01.904Z,100.00
2023-12-02T01:52:34.025Z,100.00
2023-12-02T01:56:18.470Z,100.00
2023-12-02T02:00:02.790Z,100.00
2023-12-02T02:03:49.635Z,100.00
2023-12-02T02:10:58.489Z,100.00
2023-12-02T02:14:21.387Z,100.00
2023-12-02T02:18:07.256Z,100.00
2023-12-02T02:21:33.570Z,100.00
2023-12-02T02:25:17.114Z,100.00
2023-12-02T02:28:51.746Z,100.00
2023-12-02T02:32:26.521Z,100.00
2023-12-02T02:35:57.506Z,100.00
2023-12-02T02:39:20.360Z,100.00
2023-12-02T02:42:51.523Z,100.00
2023-12-02T02:46:23.773Z,100.00
2023-12-02T02:49:54.572Z,100.00
2023-12-02T02:53:46.400Z,100.00
2023-12-02T02:56:53.535Z,100.00
2023-12-02T03:00:17.458Z,100.00
2023-12-02T03:04:00.075Z,100.00
2023-12-02T03:07:43.198Z,100.00
2023-12-02T03:11:34.734Z,100.00
2023-12-02T03:15:18.465Z,100.00
2023-12-02T03:18:39.806Z,100.00
2023-12-02T03:22:12.935Z,100.00
2023-12-02T03:25:47.009Z,100.00
2023-12-02T03:29:32.076Z,100.00
2023-12-02T03:32:55.174Z,100.00
2023-12-02T03:36:21.557Z,100.00
2023-12-02T03:39:52.895Z,100.00
2023-12-02T03:47:05.433Z,100.00
2023-12-02T03:50:39.545Z,100.00
2023-12-02T03:54:26.835Z,100.00
2023-12-02T03:58:03.200Z,100.00
2023-12-02T04:01:54.358Z,100.00
2023-12-02T04:05:21.181Z,100.00
2023-12-02T04:08:51.974Z,100.00
2023-12-02T04:12:23.244Z,100.00
2023-12-02T04:16:08.697Z,100.00
2023-12-02T04:19:31.909Z,100.00
2023-12-02T04:23:22.066Z,100.00
2023-12-02T04:26:45.285Z,100.00
2023-12-02T04:30:16.313Z,100.00
2023-12-02T04:33:47.947Z,100.00
2023-12-02T04:37:31.200Z,100.00
2023-12-02T04:41:24.984Z,100.00
2023-12-02T04:45:00.135Z,100.00
2023-12-02T04:48:31.921Z,100.00
2023-12-02T04:51:57.588Z,100.00
2023-12-02T04:55:21.725Z,100.00
2023-12-02T04:58:56.060Z,100.00
2023-12-02T05:14:08.747Z,100.00
2023-12-02T05:17:39.757Z,100.00
2023-12-02T05:21:13.786Z,100.00
2023-12-02T05:24:56.523Z,100.00
2023-12-02T05:28:27.810Z,100.00
2023-12-02T05:31:59.219Z,100.00
2023-12-02T05:35:31.085Z,100.00
2023-12-02T05:39:03.741Z,100.00
2023-12-02T05:42:35.131Z,100.00
2023-12-02T05:46:19.120Z,100.00
2023-12-02T05:49:44.220Z,100.00
2023-12-02T05:53:18.045Z,100.00
2023-12-02T05:57:01.473Z,100.00
2023-12-02T06:00:25.201Z,100.00
2023-12-02T06:03:53.264Z,100.00
2023-12-02T06:07:28.682Z,100.00
2023-12-02T06:11:00.583Z,100.00
2023-12-02T06:14:43.927Z,100.00
2023-12-02T06:18:08.356Z,100.00
2023-12-02T06:25:32.406Z,100.00
2023-12-02T06:29:25.925Z,100.00
2023-12-02T06:32:50.147Z,100.00
2023-12-02T06:36:38.727Z,100.00
2023-12-02T06:40:03.949Z,100.00
2023-12-02T06:43:29.737Z,100.00
2023-12-02T06:51:00.385Z,100.00
2023-12-02T06:58:24.041Z,100.00
2023-12-02T07:05:27.894Z,100.00
2023-12-02T07:08:58.925Z,100.00
2023-12-02T07:27:28.229Z,100.00
2023-12-02T07:31:18.215Z,100.00
2023-12-02T07:35:03.304Z,100.00
2023-12-02T07:42:16.669Z,100.00
2023-12-02T07:46:05.634Z,100.00
2023-12-02T08:08:34.628Z,100.00
2023-12-02T08:12:16.328Z,100.00
2023-12-02T08:19:47.606Z,100.00
2023-12-02T08:27:12.319Z,100.00
2023-12-02T08:30:49.504Z,100.00
2023-12-02T09:00:43.774Z,100.00
2023-12-02T09:38:22.415Z,100.00
2023-12-02T10:10:40.887Z,100.00
2023-12-02T10:22:22.217Z,100.00
2023-12-02T11:37:49.099Z,100.00
2023-12-02T14:17:54.112Z,100.00
2023-12-02T14:25:46.046Z,100.00
2023-12-02T14:49:59.348Z,100.00
2023-12-02T15:08:57.864Z,100.00
2023-12-02T16:13:00.718Z,100.00
2023-12-02T16:29:22.002Z,100.00
2023-12-02T17:11:35.712Z,100.00
2023-12-02T17:59:37.792Z,100.00
2023-12-02T18:07:05.223Z,100.00
2023-12-02T18:26:56.855Z,100.00
2023-12-02T18:42:26.429Z,100.00
2023-12-02T18:46:24.253Z,100.00
2023-12-02T18:53:31.585Z,100.00
2023-12-02T18:57:07.012Z,100.00
2023-12-02T19:01:00.961Z,100.00
2023-12-02T19:04:38.025Z,100.00
2023-12-02T19:08:11.466Z,100.00
2023-12-02T19:12:00.661Z,100.00
2023-12-02T19:15:32.537Z,100.00
2023-12-02T19:22:22.128Z,100.00
2023-12-02T19:26:07.701Z,100.00
2023-12-02T19:29:45.678Z,100.00
2023-12-02T19:33:21.249Z,100.00
2023-12-02T19:36:56.118Z,100.00
2023-12-02T19:40:28.738Z,100.00
2023-12-02T19:48:20.738Z,100.00
2023-12-02T19:59:20.719Z,100.00
2023-12-02T20:03:21.826Z,100.00
2023-12-02T20:06:55.083Z,100.00
2023-12-02T20:10:38.626Z,99.76
2023-12-02T20:17:59.122Z,99.04
2023-12-02T20:21:31.959Z,99.23
2023-12-02T20:28:50.587Z,98.61
2023-12-02T20:36:01.732Z,100.00
2023-12-02T20:39:33.739Z,99.91
2023-12-02T20:43:29.055Z,98.83
2023-12-02T21:07:15.534Z,96.45
